createdAt,value
2022-09-20T00:01:14.128Z,381.65
2022-09-20T00:03:45.589Z,373.17
2022-09-20T00:06:18.280Z,372.67
2022-09-20T00:08:45.006Z,369.63
2022-09-20T00:11:18.380Z,386.45
2022-09-20T00:13:47.297Z,361.90
2022-09-20T00:16:17.038Z,362.80
2022-09-20T00:18:43.757Z,358.35
2022-09-20T00:21:22.110Z,362.63
2022-09-20T00:23:48.782Z,370.60
2022-09-20T00:26:15.485Z,367.25
2022-09-20T00:28:44.071Z,361.50
2022-09-20T00:31:11.889Z,374.33
2022-09-20T00:33:57.520Z,373.52
2022-09-20T00:36:24.272Z,371.83
2022-09-20T00:39:01.083Z,371.27
2022-09-20T00:41:28.891Z,375.10
2022-09-20T00:43:56.146Z,371.85
2022-09-20T00:46:44.957Z,364.80
2022-09-20T00:49:26.664Z,366.83
2022-09-20T00:52:00.938Z,362.25
2022-09-20T00:54:30.361Z,361.17
2022-09-20T00:56:57.980Z,370.90
2022-09-20T00:59:30.295Z,359.08
2022-09-20T01:02:06.647Z,367.55
2022-09-20T01:04:35.814Z,363.83
2022-09-20T01:07:05.229Z,371.40
2022-09-20T01:09:31.803Z,379.58
2022-09-20T01:12:01.722Z,377.13
2022-09-20T01:14:28.571Z,381.83
2022-09-20T01:16:57.766Z,380.00
2022-09-20T01:19:33.971Z,391.48
2022-09-20T01:22:06.890Z,388.48
2022-09-20T01:25:16.901Z,377.17
2022-09-20T01:27:52.339Z,382.15
2022-09-20T01:30:26.153Z,376.20
2022-09-20T01:33:16.434Z,381.02
2022-09-20T01:35:46.837Z,369.33
2022-09-20T01:38:34.589Z,374.23
2022-09-20T01:41:12.369Z,395.33
2022-09-20T01:43:55.759Z,383.65
2022-09-20T01:46:34.486Z,391.60
2022-09-20T01:49:16.146Z,380.40
2022-09-20T01:51:56.425Z,382.83
2022-09-20T01:54:47.657Z,370.65
2022-09-20T01:57:27.208Z,381.52
2022-09-20T01:59:54.303Z,375.40
2022-09-20T02:02:42.601Z,366.90
2022-09-20T02:05:35.689Z,357.15
2022-09-20T02:08:10.193Z,360.75
2022-09-20T02:11:12.183Z,372.00
2022-09-20T02:14:06.424Z,352.77
2022-09-20T02:16:45.186Z,362.92
2022-09-20T02:19:41.430Z,360.33
2022-09-20T02:22:31.396Z,342.45
2022-09-20T02:25:22.897Z,357.90
2022-09-20T02:28:04.362Z,343.87
2022-09-20T02:31:10.340Z,343.83
2022-09-20T02:34:15.429Z,343.17
2022-09-20T02:36:57.316Z,346.67
2022-09-20T02:39:36.090Z,357.90
2022-09-20T02:42:25.237Z,370.33
2022-09-20T02:45:14.024Z,359.33
2022-09-20T02:47:43.372Z,363.95
2022-09-20T02:50:45.373Z,357.97
2022-09-20T02:53:31.017Z,354.77
2022-09-20T02:56:19.472Z,355.67
2022-09-20T02:59:01.404Z,328.35
2022-09-20T03:01:45.806Z,354.95
2022-09-20T03:04:18.287Z,345.00
2022-09-20T03:06:55.531Z,341.85
2022-09-20T03:09:40.499Z,322.42
2022-09-20T03:12:32.449Z,321.45
2022-09-20T03:15:30.741Z,329.23
2022-09-20T03:18:06.565Z,327.50
2022-09-20T03:20:50.434Z,332.98
2022-09-20T03:23:35.570Z,317.50
2022-09-20T03:26:30.226Z,297.88
2022-09-20T03:29:02.789Z,301.05
2022-09-20T03:32:01.605Z,324.23
2022-09-20T03:34:53.721Z,327.27
2022-09-20T03:37:20.335Z,321.58
2022-09-20T03:40:02.134Z,325.88
2022-09-20T03:42:29.839Z,334.70
2022-09-20T03:45:18.901Z,328.83
2022-09-20T03:48:23.918Z,343.25
2022-09-20T03:51:29.122Z,328.23
2022-09-20T03:54:42.588Z,340.52
2022-09-20T03:57:39.272Z,344.95
2022-09-20T04:00:15.478Z,338.88
2022-09-20T04:03:23.792Z,333.02
2022-09-20T04:06:17.841Z,333.65
2022-09-20T04:09:16.032Z,326.13
2022-09-20T04:11:59.629Z,324.70
2022-09-20T04:14:41.907Z,326.23
2022-09-20T04:17:50.418Z,330.73
2022-09-20T04:20:34.840Z,339.33
2022-09-20T04:23:12.167Z,345.17
2022-09-20T04:25:45.795Z,352.02
2022-09-20T04:28:27.000Z,328.80
2022-09-20T04:31:00.009Z,330.60
2022-09-20T04:33:41.547Z,333.90
2022-09-20T04:36:30.960Z,334.70
2022-09-20T04:39:24.141Z,332.40
2022-09-20T04:42:16.764Z,340.23
2022-09-20T04:45:08.308Z,324.10
2022-09-20T04:48:20.655Z,330.02
2022-09-20T04:51:31.553Z,351.08
2022-09-20T04:53:58.294Z,345.83
2022-09-20T04:56:51.135Z,329.85
2022-09-20T04:59:39.916Z,346.58
2022-09-20T05:02:15.509Z,333.98
2022-09-20T05:05:06.242Z,353.80
2022-09-20T05:08:04.376Z,355.77
2022-09-20T05:11:06.172Z,364.67
2022-09-20T05:14:03.420Z,341.25
2022-09-20T05:16:52.662Z,336.45
2022-09-20T05:19:30.344Z,338.98
2022-09-20T05:22:32.430Z,344.67
2022-09-20T05:25:01.734Z,346.10
2022-09-20T05:27:54.071Z,346.70
2022-09-20T05:30:41.470Z,363.35
2022-09-20T05:33:35.344Z,353.10
2022-09-20T05:36:19.414Z,352.25
2022-09-20T05:38:58.022Z,347.95
2022-09-20T05:41:37.372Z,357.55
2022-09-20T05:44:24.150Z,337.95
2022-09-20T05:47:21.810Z,336.98
2022-09-20T05:50:15.969Z,332.23
2022-09-20T05:53:02.518Z,326.02
2022-09-20T05:55:47.431Z,315.00
2022-09-20T05:58:16.743Z,308.95
2022-09-20T06:00:53.238Z,306.55
2022-09-20T06:03:47.305Z,314.63
2022-09-20T06:06:40.370Z,315.27
2022-09-20T06:09:26.320Z,313.07
2022-09-20T06:12:22.722Z,297.92
2022-09-20T06:15:03.160Z,292.25
2022-09-20T06:17:35.727Z,303.10
2022-09-20T06:20:20.712Z,302.40
2022-09-20T06:22:52.270Z,279.27
2022-09-20T06:25:27.951Z,285.40
2022-09-20T06:28:22.442Z,272.50
2022-09-20T06:30:54.676Z,266.38
2022-09-20T06:33:26.104Z,261.00
2022-09-20T06:36:30.190Z,265.05
2022-09-20T06:39:21.472Z,269.10
2022-09-20T06:41:51.453Z,261.70
2022-09-20T06:44:18.054Z,243.57
2022-09-20T06:46:44.692Z,246.77
2022-09-20T06:49:11.306Z,241.18
2022-09-20T06:51:39.438Z,242.23
2022-09-20T06:54:11.578Z,227.57
2022-09-20T06:56:38.455Z,232.85
2022-09-20T06:59:10.407Z,219.50
2022-09-20T07:01:37.763Z,234.60
2022-09-20T07:04:06.173Z,228.90
2022-09-20T07:06:33.714Z,218.52
2022-09-20T07:09:00.405Z,242.30
2022-09-20T07:11:26.958Z,226.20
2022-09-20T07:13:55.670Z,232.30
2022-09-20T07:16:22.360Z,234.10
2022-09-20T07:18:49.583Z,229.30
2022-09-20T07:21:20.426Z,230.20
2022-09-20T07:23:50.519Z,220.05
2022-09-20T07:26:28.785Z,226.98
2022-09-20T07:28:56.395Z,235.15
2022-09-20T07:31:26.085Z,226.52
2022-09-20T07:33:52.886Z,230.93
2022-09-20T07:36:19.713Z,227.80
2022-09-20T07:38:51.394Z,225.40
2022-09-20T07:41:19.077Z,226.25
2022-09-20T07:43:46.644Z,229.87
2022-09-20T07:46:16.398Z,210.32
2022-09-20T07:48:43.056Z,217.00
2022-09-20T07:51:12.698Z,207.65
2022-09-20T07:53:40.581Z,225.88
2022-09-20T07:56:14.288Z,231.65
2022-09-20T07:58:41.901Z,228.73
2022-09-20T08:01:11.343Z,224.75
2022-09-20T08:03:38.130Z,218.27
2022-09-20T08:06:10.296Z,206.90
2022-09-20T08:08:39.240Z,203.35
2022-09-20T08:11:08.613Z,207.18
2022-09-20T08:16:32.351Z,203.05
2022-09-20T08:19:01.491Z,188.88
2022-09-20T08:21:33.541Z,198.38
2022-09-20T08:24:00.796Z,188.75
2022-09-20T08:26:31.424Z,194.05
2022-09-20T08:29:02.154Z,194.60
2022-09-20T08:31:37.208Z,161.30
2022-09-20T08:34:06.686Z,170.52
2022-09-20T08:36:36.709Z,171.53
2022-09-20T08:41:56.388Z,182.38
2022-09-20T08:44:28.601Z,177.93
2022-09-20T08:47:03.213Z,185.88
2022-09-20T08:49:30.676Z,205.90
2022-09-20T08:51:58.998Z,213.15
2022-09-20T08:54:33.241Z,203.33
2022-09-20T08:57:07.072Z,201.88
2022-09-20T08:59:33.685Z,185.15
2022-09-20T09:02:01.205Z,182.43
2022-09-20T09:04:36.436Z,190.82
2022-09-20T09:07:03.628Z,191.40
2022-09-20T09:09:30.772Z,158.27
2022-09-20T09:11:58.785Z,130.43
2022-09-20T09:14:45.693Z,111.33
2022-09-20T09:17:14.676Z,103.47
2022-09-20T09:19:50.157Z,84.22
2022-09-20T09:22:25.412Z,55.90
2022-09-20T09:25:32.255Z,37.80
2022-09-20T09:28:02.342Z,47.72
2022-09-20T09:30:32.575Z,18.63
2022-09-20T09:33:14.433Z,17.48
2022-09-20T09:35:41.515Z,14.48
2022-09-20T09:38:21.634Z,11.10
2022-09-20T09:40:57.242Z,12.50
2022-09-20T09:43:30.154Z,10.87
2022-09-20T09:46:17.720Z,10.40
2022-09-20T09:48:49.875Z,8.60
2022-09-20T09:51:22.009Z,8.57
2022-09-20T09:53:51.761Z,7.30
2022-09-20T09:56:36.983Z,3.70
2022-09-20T09:59:31.232Z,3.22
2022-09-20T10:02:08.255Z,2.70
2022-09-20T10:04:44.768Z,2.40
2022-09-20T10:07:39.517Z,2.08
2022-09-20T10:10:32.402Z,1.88
2022-09-20T10:13:21.726Z,1.98
2022-09-20T10:16:00.437Z,2.00
2022-09-20T10:18:53.069Z,2.50
2022-09-20T10:21:31.667Z,2.28
2022-09-20T10:24:14.882Z,2.03
2022-09-20T10:27:00.279Z,1.83
2022-09-20T10:29:51.334Z,1.80
2022-09-20T10:32:24.078Z,1.60
2022-09-20T10:35:19.755Z,1.60
2022-09-20T10:38:05.909Z,1.70
2022-09-20T10:40:59.266Z,1.88
2022-09-20T10:43:48.571Z,2.10
2022-09-20T10:46:43.700Z,1.88
2022-09-20T10:49:34.789Z,1.52
2022-09-20T10:52:36.236Z,1.60
2022-09-20T10:55:34.910Z,1.60
2022-09-20T10:58:40.515Z,1.60
2022-09-20T11:01:23.370Z,1.45
2022-09-20T11:04:22.205Z,1.33
2022-09-20T11:07:03.080Z,1.40
2022-09-20T11:09:35.861Z,1.42
2022-09-20T11:12:05.916Z,1.60
2022-09-20T11:15:00.529Z,1.63
2022-09-20T11:17:34.768Z,1.60
2022-09-20T11:20:20.959Z,1.27
2022-09-20T11:23:01.034Z,1.40
2022-09-20T11:25:44.400Z,1.48
2022-09-20T11:28:27.367Z,1.52
2022-09-20T11:31:09.701Z,1.30
2022-09-20T11:33:49.214Z,1.37
2022-09-20T11:36:39.586Z,1.35
2022-09-20T11:39:44.379Z,1.33
2022-09-20T11:42:20.271Z,1.20
2022-09-20T11:44:47.319Z,1.40
2022-09-20T11:47:54.386Z,1.25
2022-09-20T11:50:42.527Z,1.30
2022-09-20T11:53:37.229Z,1.27
2022-09-20T11:56:08.784Z,1.42
2022-09-20T11:58:57.790Z,1.45
2022-09-20T12:01:28.940Z,1.30
2022-09-20T12:04:27.913Z,1.20
2022-09-20T12:06:47.589Z,1.30
2022-09-20T12:09:29.193Z,1.40
2022-09-20T12:11:57.095Z,1.40
2022-09-20T12:14:27.561Z,1.40
2022-09-20T12:16:55.630Z,1.45
2022-09-20T12:19:22.184Z,1.70
2022-09-20T12:22:00.977Z,1.60
2022-09-20T12:24:33.894Z,1.67
2022-09-20T12:27:41.161Z,1.40
2022-09-20T12:30:22.307Z,1.20
2022-09-20T12:32:53.953Z,1.17
2022-09-20T12:35:35.504Z,1.20
2022-09-20T12:38:20.172Z,1.10
2022-09-20T12:41:05.379Z,1.10
2022-09-20T12:43:34.384Z,1.00
2022-09-20T12:46:06.357Z,1.20
2022-09-20T12:48:38.907Z,1.30
2022-09-20T12:51:33.085Z,1.10
2022-09-20T12:54:06.821Z,1.17
2022-09-20T12:56:37.843Z,1.20
2022-09-20T12:59:18.872Z,1.20
2022-09-20T13:01:46.087Z,1.20
2022-09-20T13:04:40.896Z,1.10
2022-09-20T13:07:34.894Z,1.00
2022-09-20T13:10:17.835Z,1.07
2022-09-20T13:12:45.649Z,1.10
2022-09-20T13:15:19.724Z,1.00
2022-09-20T13:17:51.956Z,1.10
2022-09-20T13:20:25.766Z,1.10
2022-09-20T13:22:57.115Z,1.10
2022-09-20T13:25:31.870Z,0.98
2022-09-20T13:28:31.424Z,0.90
2022-09-20T13:31:36.724Z,1.00
2022-09-20T13:34:14.368Z,0.90
2022-09-20T13:36:43.514Z,0.90
2022-09-20T13:39:25.842Z,0.80
2022-09-20T13:41:53.063Z,0.65
2022-09-20T13:44:20.136Z,0.90
2022-09-20T13:46:46.632Z,0.90
2022-09-20T13:49:20.708Z,0.80
2022-09-20T13:51:48.881Z,0.90
2022-09-20T13:54:27.363Z,1.02
2022-09-20T13:57:11.336Z,1.10
2022-09-20T13:59:47.239Z,0.98
2022-09-20T14:02:32.429Z,1.27
2022-09-20T14:05:15.605Z,1.00
2022-09-20T14:07:46.764Z,1.05
2022-09-20T14:10:31.691Z,1.02
2022-09-20T14:13:02.183Z,0.90
2022-09-20T14:15:35.939Z,1.05
2022-09-20T14:18:04.723Z,1.10
2022-09-20T14:20:31.931Z,1.00
2022-09-20T14:22:59.351Z,0.90
2022-09-20T14:25:27.431Z,1.05
2022-09-20T14:28:24.566Z,1.10
2022-09-20T14:31:12.937Z,1.13
2022-09-20T14:33:54.900Z,1.10
2022-09-20T14:36:25.508Z,1.00
2022-09-20T14:38:57.648Z,1.33
2022-09-20T14:41:39.421Z,1.20
2022-09-20T14:44:16.296Z,1.15
2022-09-20T14:46:43.114Z,1.30
2022-09-20T14:49:26.176Z,1.05
2022-09-20T14:51:53.726Z,1.20
2022-09-20T14:54:27.476Z,1.20
2022-09-20T14:56:57.397Z,1.10
2022-09-20T14:59:30.380Z,1.00
2022-09-20T15:02:07.196Z,1.30
2022-09-20T15:04:37.784Z,1.20
2022-09-20T15:07:11.426Z,1.27
2022-09-20T15:09:38.012Z,1.13
2022-09-20T15:12:16.069Z,1.35
2022-09-20T15:14:42.924Z,1.40
2022-09-20T15:17:15.192Z,1.30
2022-09-20T15:19:41.868Z,1.30
2022-09-20T15:22:09.967Z,1.40
2022-09-20T15:24:36.578Z,3.13
2022-09-20T15:27:03.460Z,1.00
2022-09-20T15:29:30.147Z,1.00
2022-09-20T15:31:56.887Z,1.30
2022-09-20T15:34:25.526Z,1.10
2022-09-20T15:36:53.898Z,1.10
2022-09-20T15:39:22.276Z,3.03
2022-09-20T15:41:52.292Z,2.40
2022-09-20T15:44:19.008Z,1.25
2022-09-20T15:46:45.686Z,1.10
2022-09-20T15:49:12.605Z,1.15
2022-09-20T15:51:39.467Z,1.00
2022-09-20T15:54:07.616Z,1.20
2022-09-20T15:56:36.560Z,1.50
2022-09-20T15:59:05.495Z,4.55
2022-09-20T16:01:37.712Z,16.80
2022-09-20T16:04:11.278Z,8.93
2022-09-20T16:06:39.801Z,7.85
2022-09-20T16:09:07.536Z,6.38
2022-09-20T16:11:35.091Z,6.53
2022-09-20T16:14:01.996Z,9.37
2022-09-20T16:16:33.180Z,20.83
2022-09-20T16:19:22.532Z,13.93
2022-09-20T16:21:59.288Z,4.30
2022-09-20T16:24:30.795Z,14.38
2022-09-20T16:26:58.122Z,36.10
2022-09-20T16:29:26.120Z,24.02
2022-09-20T16:31:55.696Z,27.83
2022-09-20T16:34:23.895Z,22.20
2022-09-20T16:36:54.151Z,21.27
2022-09-20T16:39:26.168Z,27.65
2022-09-20T16:41:53.515Z,22.30
2022-09-20T16:44:20.065Z,20.20
2022-09-20T16:46:47.238Z,18.80
2022-09-20T16:49:17.071Z,19.52
2022-09-20T16:51:47.065Z,32.30
2022-09-20T16:54:15.223Z,34.77
2022-09-20T16:56:47.779Z,24.63
2022-09-20T16:59:15.898Z,17.10
2022-09-20T17:01:42.946Z,36.47
2022-09-20T17:04:10.453Z,26.45
2022-09-20T17:06:38.137Z,30.30
2022-09-20T17:09:06.635Z,35.72
2022-09-20T17:11:42.168Z,36.38
2022-09-20T17:14:09.688Z,24.75
2022-09-20T17:16:38.969Z,17.45
2022-09-20T17:19:11.372Z,26.17
2022-09-20T17:21:44.693Z,32.67
2022-09-20T17:24:11.799Z,32.42
2022-09-20T17:26:40.811Z,33.33
2022-09-20T17:29:11.409Z,36.53
2022-09-20T17:31:41.675Z,47.20
2022-09-20T17:34:11.019Z,36.00
2022-09-20T17:36:41.296Z,42.60
2022-09-20T17:39:12.898Z,42.00
2022-09-20T17:41:41.508Z,23.30
2022-09-20T17:44:09.870Z,40.60
2022-09-20T17:46:37.825Z,32.97
2022-09-20T17:49:14.179Z,52.13
2022-09-20T17:51:43.441Z,37.63
2022-09-20T17:54:14.238Z,63.65
2022-09-20T17:56:47.071Z,38.20
2022-09-20T17:59:17.774Z,51.92
2022-09-20T18:01:46.281Z,51.17
2022-09-20T18:04:13.153Z,69.68
2022-09-20T18:06:44.206Z,61.33
2022-09-20T18:09:14.290Z,74.15
2022-09-20T18:11:48.712Z,64.82
2022-09-20T18:14:17.656Z,102.50
2022-09-20T18:16:45.430Z,127.38
2022-09-20T18:19:12.532Z,174.60
2022-09-20T18:21:40.795Z,183.90
2022-09-20T18:24:09.775Z,199.70
2022-09-20T18:26:38.056Z,208.55
2022-09-20T18:29:11.075Z,199.82
2022-09-20T18:31:42.981Z,244.57
2022-09-20T18:34:20.779Z,246.90
2022-09-20T18:36:53.287Z,264.15
2022-09-20T18:39:24.887Z,274.45
2022-09-20T18:41:53.211Z,271.95
2022-09-20T18:44:21.082Z,297.83
2022-09-20T18:46:48.756Z,287.33
2022-09-20T18:49:16.820Z,294.83
2022-09-20T18:51:44.373Z,285.50
2022-09-20T18:54:11.878Z,307.95
2022-09-20T18:56:42.137Z,313.08
2022-09-20T18:59:20.394Z,311.13
2022-09-20T19:02:08.263Z,323.23
2022-09-20T19:04:59.755Z,308.92
2022-09-20T19:07:47.939Z,320.02
2022-09-20T19:10:45.791Z,301.25
2022-09-20T19:13:30.990Z,316.83
2022-09-20T19:16:30.502Z,315.10
2022-09-20T19:19:17.918Z,309.63
2022-09-20T19:21:58.711Z,313.07
2022-09-20T19:24:41.834Z,322.63
2022-09-20T19:27:13.615Z,311.58
2022-09-20T19:29:43.510Z,316.65
2022-09-20T19:32:16.982Z,309.77
2022-09-20T19:34:45.059Z,326.08
2022-09-20T19:37:47.301Z,314.90
2022-09-20T19:40:35.039Z,326.38
2022-09-20T19:43:23.620Z,319.52
2022-09-20T19:46:13.437Z,338.95
2022-09-20T19:48:47.079Z,340.45
2022-09-20T19:51:14.979Z,348.33
2022-09-20T19:53:44.318Z,335.33
2022-09-20T19:56:29.588Z,328.88
2022-09-20T19:58:56.511Z,351.98
2022-09-20T20:01:24.993Z,350.58
2022-09-20T20:03:55.852Z,345.85
2022-09-20T20:06:55.968Z,344.50
2022-09-20T20:09:46.404Z,345.67
2022-09-20T20:12:22.597Z,336.20
2022-09-20T20:15:12.430Z,337.88
2022-09-20T20:18:04.752Z,346.35
2022-09-20T20:20:40.209Z,358.23
2022-09-20T20:23:15.968Z,350.13
2022-09-20T20:25:51.709Z,346.60
2022-09-20T20:28:18.342Z,354.08
2022-09-20T20:30:44.946Z,356.30
2022-09-20T20:33:16.221Z,358.08
2022-09-20T20:35:45.774Z,349.00
2022-09-20T20:38:12.663Z,348.92
2022-09-20T20:40:40.254Z,364.60
2022-09-20T20:43:09.798Z,362.20
2022-09-20T20:45:37.012Z,371.65
2022-09-20T20:48:03.755Z,366.92
2022-09-20T20:50:30.460Z,370.38
2022-09-20T20:52:57.349Z,373.58
2022-09-20T20:55:24.653Z,368.17
2022-09-20T20:57:58.321Z,378.30
2022-09-20T21:00:30.848Z,369.30
2022-09-20T21:03:00.970Z,364.25
2022-09-20T21:05:29.840Z,361.33
2022-09-20T21:07:57.916Z,373.55
2022-09-20T21:10:24.655Z,371.77
2022-09-20T21:12:54.370Z,376.93
2022-09-20T21:15:21.439Z,378.83
2022-09-20T21:17:54.937Z,364.60
2022-09-20T21:20:22.461Z,368.08
2022-09-20T21:22:49.178Z,377.83
2022-09-20T21:25:15.787Z,375.50
2022-09-20T21:27:42.715Z,379.48
2022-09-20T21:30:09.841Z,380.65
2022-09-20T21:32:36.584Z,383.50
2022-09-20T21:35:03.307Z,385.08
2022-09-20T21:37:30.023Z,382.33
2022-09-20T21:39:56.588Z,388.77
2022-09-20T21:42:23.324Z,369.48
2022-09-20T21:44:51.641Z,367.25
2022-09-20T21:47:20.309Z,370.83
2022-09-20T21:49:47.582Z,368.30
2022-09-20T21:52:14.450Z,384.90
2022-09-20T21:54:41.114Z,375.23
2022-09-20T21:57:07.920Z,372.35
2022-09-20T21:59:34.566Z,377.70
2022-09-20T22:02:01.149Z,379.37
2022-09-20T22:04:28.883Z,377.25
2022-09-20T22:06:55.500Z,375.00
2022-09-20T22:09:24.035Z,379.20
2022-09-20T22:11:50.758Z,381.92
2022-09-20T22:14:19.503Z,379.25
2022-09-20T22:16:47.656Z,377.42
2022-09-20T22:19:17.007Z,378.85
2022-09-20T22:21:46.341Z,369.52
2022-09-20T22:24:14.780Z,378.77
2022-09-20T22:26:47.477Z,358.93
2022-09-20T22:29:15.004Z,361.55
2022-09-20T22:31:47.056Z,353.00
2022-09-20T22:34:16.126Z,346.38
2022-09-20T22:36:43.028Z,343.70
2022-09-20T22:39:11.326Z,336.20
2022-09-20T22:41:41.132Z,335.55
2022-09-20T22:44:08.108Z,336.10
2022-09-20T22:46:35.291Z,332.75
2022-09-20T22:49:04.689Z,332.20
2022-09-20T22:51:33.196Z,327.90
2022-09-20T22:54:00.675Z,330.38
2022-09-20T22:56:29.584Z,333.30
2022-09-20T22:58:59.995Z,329.15
2022-09-20T23:01:29.350Z,335.02
2022-09-20T23:04:00.878Z,322.73
2022-09-20T23:06:34.064Z,319.02
2022-09-20T23:09:02.628Z,316.30
2022-09-20T23:11:29.830Z,319.95
2022-09-20T23:14:01.610Z,314.52
2022-09-20T23:16:33.412Z,312.20
2022-09-20T23:19:03.043Z,311.05
2022-09-20T23:21:30.030Z,307.88
2022-09-20T23:24:05.274Z,303.20
2022-09-20T23:26:34.204Z,300.65
2022-09-20T23:29:10.875Z,298.35
2022-09-20T23:31:39.230Z,302.27
2022-09-20T23:34:07.559Z,297.17
2022-09-20T23:36:37.995Z,307.05
2022-09-20T23:39:06.104Z,304.63
2022-09-20T23:41:32.954Z,317.52
2022-09-20T23:43:59.715Z,316.15
2022-09-20T23:46:27.241Z,304.70
2022-09-20T23:48:54.477Z,311.38
2022-09-20T23:51:26.198Z,304.35
2022-09-20T23:53:53.603Z,315.23
2022-09-20T23:56:21.780Z,317.55
2022-09-20T23:58:48.715Z,310.90
